Terminal Aerodrome Forecast
Issued by NWS

Home | Current Version | Previous Version | Text Only | Print | Product List | Glossary On
Versions: 1 2 3 4 5 6 7 8 9 10 11 12 13 14 15 16
000
FTUS45 KTFX 012300 RRA
TAFCTB
TAF
KCTB 012341Z 0200/0224 25017G27KT P6SM SCT150
     FM020200 25015KT P6SM SCT150
     FM020700 30015KT P6SM SCT050 BKN080
     FM020900 34015KT P6SM -SHRASN SCT025 OVC040
      TEMPO 0210/0214 2SM -SN BR BKN015
     FM021600 32015KT P6SM SCT060=

USA.gov is the U.S. government's official web portal to all federal, state and local government web resources and services.